createdAt,value
2018-02-03T00:01:36.694Z,85.80
2018-02-03T00:04:04.242Z,85.70
2018-02-03T00:06:31.861Z,85.70
2018-02-03T00:08:59.445Z,85.70
2018-02-03T00:11:27.058Z,85.60
2018-02-03T00:13:54.661Z,85.70
2018-02-03T00:16:22.210Z,85.80
2018-02-03T00:18:49.809Z,86.20
2018-02-03T00:21:17.362Z,86.00
2018-02-03T00:23:44.942Z,86.20
2018-02-03T00:26:12.573Z,86.40
2018-02-03T00:28:40.451Z,86.60
2018-02-03T00:31:08.024Z,86.60
2018-02-03T00:33:35.610Z,86.90
2018-02-03T00:36:03.404Z,86.80
2018-02-03T00:38:31.002Z,87.00
2018-02-03T00:40:58.552Z,87.30
2018-02-03T00:43:26.183Z,87.70
2018-02-03T00:45:53.777Z,87.70
2018-02-03T00:48:21.367Z,87.90
2018-02-03T00:50:49.325Z,88.10
2018-02-03T00:53:16.940Z,88.10
2018-02-03T00:55:44.521Z,87.90
2018-02-03T00:58:12.137Z,87.80
2018-02-03T01:00:39.707Z,87.80
2018-02-03T01:03:07.257Z,87.70
2018-02-03T01:05:34.841Z,87.80
2018-02-03T01:08:02.422Z,88.00
2018-02-03T01:10:30.020Z,88.10
2018-02-03T01:12:57.597Z,88.10
2018-02-03T01:15:25.234Z,88.00
2018-02-03T01:17:53.238Z,87.90
2018-02-03T01:20:20.774Z,87.90
2018-02-03T01:22:48.422Z,87.80
2018-02-03T01:25:16.011Z,87.80
2018-02-03T01:27:43.722Z,87.70
2018-02-03T01:30:11.681Z,87.70
2018-02-03T01:32:39.269Z,87.70
2018-02-03T01:35:06.890Z,87.70
2018-02-03T01:37:34.454Z,87.60
2018-02-03T01:40:02.058Z,87.70
2018-02-03T01:42:29.681Z,87.80
2018-02-03T01:44:57.268Z,87.80
2018-02-03T01:47:24.821Z,87.70
2018-02-03T01:49:52.414Z,87.70
2018-02-03T01:52:19.965Z,87.90
2018-02-03T01:54:47.561Z,87.90
2018-02-03T01:57:15.125Z,87.60
2018-02-03T01:59:42.734Z,87.70
2018-02-03T02:02:10.330Z,87.90
2018-02-03T02:04:37.946Z,87.90
2018-02-03T02:07:05.524Z,87.90
2018-02-03T02:09:33.105Z,87.90
2018-02-03T02:12:00.665Z,87.70
2018-02-03T02:14:28.275Z,87.40
2018-02-03T02:16:55.874Z,87.30
2018-02-03T02:19:23.494Z,87.10
2018-02-03T02:21:51.071Z,87.30
2018-02-03T02:24:18.642Z,87.20
2018-02-03T02:26:46.402Z,87.30
2018-02-03T02:29:13.973Z,87.30
2018-02-03T02:31:41.615Z,87.30
2018-02-03T02:34:09.380Z,87.10
2018-02-03T02:36:36.988Z,87.20
2018-02-03T02:39:04.585Z,87.00
2018-02-03T02:41:32.134Z,87.10
2018-02-03T02:43:59.776Z,87.00
2018-02-03T02:46:27.338Z,86.80
2018-02-03T02:48:54.948Z,87.10
2018-02-03T02:51:22.552Z,87.10
2018-02-03T02:53:50.132Z,87.00
2018-02-03T02:56:17.731Z,87.00
2018-02-03T02:58:45.284Z,86.90
2018-02-03T03:01:12.937Z,87.00
2018-02-03T03:03:40.528Z,86.90
2018-02-03T03:06:08.145Z,87.20
2018-02-03T03:08:35.796Z,87.10
2018-02-03T03:11:03.398Z,87.00
2018-02-03T03:13:31.048Z,86.90
2018-02-03T03:15:58.658Z,86.80
2018-02-03T03:18:26.811Z,86.90
2018-02-03T03:20:54.433Z,86.90
2018-02-03T03:23:22.049Z,87.00
2018-02-03T03:25:49.647Z,87.00
2018-02-03T03:28:17.214Z,87.10
2018-02-03T03:30:44.849Z,87.10
2018-02-03T03:33:12.412Z,87.10
2018-02-03T03:35:40.011Z,87.20
2018-02-03T03:38:07.571Z,87.30
2018-02-03T03:40:35.224Z,87.30
2018-02-03T03:43:02.796Z,87.30
2018-02-03T03:45:30.586Z,87.40
2018-02-03T03:47:58.177Z,87.30
2018-02-03T03:50:25.784Z,87.40
2018-02-03T03:52:53.362Z,87.30
2018-02-03T03:55:20.962Z,87.40
2018-02-03T03:57:48.580Z,87.30
2018-02-03T04:00:16.206Z,87.40
2018-02-03T04:02:43.816Z,87.60
2018-02-03T04:05:11.375Z,87.60
2018-02-03T04:07:38.988Z,87.60
2018-02-03T04:10:06.587Z,87.70
2018-02-03T04:12:34.174Z,87.90
2018-02-03T04:15:01.732Z,87.80
2018-02-03T04:17:29.330Z,87.90
2018-02-03T04:19:57.102Z,88.10
2018-02-03T04:22:24.709Z,88.30
2018-02-03T04:24:53.641Z,88.20
2018-02-03T04:27:21.962Z,88.40
2018-02-03T04:29:49.602Z,88.10
2018-02-03T04:32:17.208Z,88.10
2018-02-03T04:34:44.783Z,87.90
2018-02-03T04:37:12.787Z,88.20
2018-02-03T04:39:40.413Z,88.20
2018-02-03T04:42:08.040Z,88.20
2018-02-03T04:44:35.616Z,88.40
2018-02-03T04:47:03.227Z,88.50
2018-02-03T04:49:30.774Z,88.50
2018-02-03T04:51:58.380Z,88.40
2018-02-03T04:54:25.948Z,88.40
2018-02-03T04:56:53.556Z,88.50
2018-02-03T04:59:21.171Z,88.40
2018-02-03T05:01:48.759Z,88.50
2018-02-03T05:04:16.327Z,88.40
2018-02-03T05:06:43.928Z,88.40
2018-02-03T05:09:11.492Z,88.30
2018-02-03T05:11:39.071Z,88.20
2018-02-03T05:14:07.202Z,88.20
2018-02-03T05:16:35.013Z,88.20
2018-02-03T05:19:02.619Z,88.30
2018-02-03T05:21:30.257Z,88.40
2018-02-03T05:23:57.860Z,88.40
2018-02-03T05:26:25.447Z,88.60
2018-02-03T05:28:53.163Z,89.10
2018-02-03T05:31:21.030Z,88.90
2018-02-03T05:33:48.611Z,88.80
2018-02-03T05:36:16.176Z,88.70
2018-02-03T05:38:43.804Z,88.50
2018-02-03T05:41:11.403Z,88.60
2018-02-03T05:43:39.481Z,88.70
2018-02-03T05:46:07.081Z,88.60
2018-02-03T05:48:34.690Z,88.60
2018-02-03T05:51:02.342Z,88.70
2018-02-03T05:53:29.928Z,88.90
2018-02-03T05:55:57.689Z,88.80
2018-02-03T05:58:25.314Z,88.80
2018-02-03T06:00:52.916Z,88.90
2018-02-03T06:03:20.525Z,89.10
2018-02-03T06:05:48.148Z,89.20
2018-02-03T06:08:15.746Z,89.10
2018-02-03T06:10:43.304Z,88.90
2018-02-03T06:13:10.952Z,88.80
2018-02-03T06:15:38.533Z,88.70
2018-02-03T06:18:06.116Z,88.70
2018-02-03T06:20:33.741Z,88.30
2018-02-03T06:23:01.383Z,88.40
2018-02-03T06:25:28.984Z,88.30
2018-02-03T06:27:56.587Z,88.30
2018-02-03T06:30:24.144Z,88.30
2018-02-03T06:32:51.738Z,88.30
2018-02-03T06:35:19.301Z,88.10
2018-02-03T06:37:46.911Z,88.00
2018-02-03T06:40:14.516Z,87.90
2018-02-03T06:42:42.156Z,88.00
2018-02-03T06:45:09.743Z,88.00
2018-02-03T06:47:37.816Z,88.00
2018-02-03T06:50:05.429Z,88.00
2018-02-03T06:52:33.015Z,88.00
2018-02-03T06:55:00.645Z,88.00
2018-02-03T06:57:28.223Z,87.90
2018-02-03T06:59:56.084Z,87.90
2018-02-03T07:02:23.668Z,87.90
2018-02-03T07:04:51.351Z,87.80
2018-02-03T07:07:18.914Z,87.80
2018-02-03T07:09:47.135Z,87.70
2018-02-03T07:12:14.784Z,87.60
2018-02-03T07:14:42.671Z,87.70
2018-02-03T07:17:10.645Z,87.60
2018-02-03T07:19:38.244Z,87.60
2018-02-03T07:22:05.804Z,87.40
2018-02-03T07:24:33.600Z,87.40
2018-02-03T07:27:01.372Z,87.40
2018-02-03T07:29:28.970Z,87.40
2018-02-03T07:31:56.542Z,87.60
2018-02-03T07:34:25.787Z,87.60
2018-02-03T07:36:53.432Z,87.70
2018-02-03T07:39:21.031Z,87.70
2018-02-03T07:41:49.077Z,87.70
2018-02-03T07:44:16.743Z,87.60
2018-02-03T07:46:44.326Z,87.40
2018-02-03T07:49:12.261Z,87.20
2018-02-03T07:51:40.743Z,87.40
2018-02-03T07:54:08.385Z,87.20
2018-02-03T07:56:36.016Z,87.30
2018-02-03T07:59:03.602Z,87.00
2018-02-03T08:01:31.192Z,87.00
2018-02-03T08:03:58.939Z,87.10
2018-02-03T08:06:26.531Z,87.00
2018-02-03T08:08:54.123Z,86.90
2018-02-03T08:11:21.746Z,86.60
2018-02-03T08:13:49.375Z,86.70
2018-02-03T08:16:16.968Z,86.60
2018-02-03T08:18:44.817Z,86.30
2018-02-03T08:21:12.404Z,85.90
2018-02-03T08:23:40.472Z,86.00
2018-02-03T08:26:08.107Z,85.70
2018-02-03T08:28:35.730Z,85.30
2018-02-03T08:31:03.347Z,85.70
2018-02-03T08:33:30.916Z,85.10
2018-02-03T08:35:58.516Z,85.10
2018-02-03T08:38:26.149Z,85.00
2018-02-03T08:40:53.744Z,84.80
2018-02-03T08:43:21.340Z,84.50
2018-02-03T08:45:48.952Z,84.50
2018-02-03T08:48:16.505Z,84.50
2018-02-03T08:50:44.104Z,84.10
2018-02-03T08:53:12.556Z,84.10
2018-02-03T08:55:40.175Z,83.90
2018-02-03T08:58:07.783Z,83.90
2018-02-03T09:00:35.385Z,84.10
2018-02-03T09:03:02.990Z,83.60
2018-02-03T09:05:31.980Z,83.00
2018-02-03T09:07:59.586Z,83.50
2018-02-03T09:10:27.175Z,83.20
2018-02-03T09:12:54.970Z,83.60
2018-02-03T09:15:22.524Z,83.00
2018-02-03T09:17:50.137Z,82.50
2018-02-03T09:20:17.749Z,83.00
2018-02-03T09:22:45.370Z,82.30
2018-02-03T09:25:12.960Z,81.50
2018-02-03T09:27:40.554Z,82.10
2018-02-03T09:30:08.137Z,82.00
2018-02-03T09:32:35.779Z,82.10
2018-02-03T09:35:03.808Z,82.00
2018-02-03T09:37:31.412Z,82.00
2018-02-03T09:39:59.061Z,81.70
2018-02-03T09:42:26.655Z,82.00
2018-02-03T09:44:54.289Z,82.10
2018-02-03T09:47:22.337Z,82.20
2018-02-03T09:49:49.913Z,82.20
2018-02-03T09:52:17.548Z,82.40
2018-02-03T09:54:45.124Z,82.10
2018-02-03T09:57:12.745Z,81.60
2018-02-03T09:59:40.309Z,81.90
2018-02-03T10:02:07.900Z,81.90
2018-02-03T10:04:35.704Z,81.50
2018-02-03T10:07:03.293Z,82.30
2018-02-03T10:09:30.871Z,81.70
2018-02-03T10:11:58.423Z,81.70
2018-02-03T10:14:26.062Z,82.30
2018-02-03T10:16:53.664Z,82.30
2018-02-03T10:19:21.797Z,82.20
2018-02-03T10:21:50.482Z,82.20
2018-02-03T10:24:18.075Z,82.20
2018-02-03T10:26:45.692Z,82.70
2018-02-03T10:29:13.358Z,82.80
2018-02-03T10:31:40.911Z,83.10
2018-02-03T10:34:08.532Z,83.20
2018-02-03T10:36:36.149Z,83.60
2018-02-03T10:39:03.840Z,83.50
2018-02-03T10:41:31.639Z,83.70
2018-02-03T10:43:59.261Z,83.60
2018-02-03T10:46:27.072Z,83.60
2018-02-03T10:48:54.661Z,83.80
2018-02-03T10:51:22.229Z,83.90
2018-02-03T10:53:50.374Z,83.60
2018-02-03T10:56:18.227Z,83.70
2018-02-03T10:58:45.875Z,84.50
2018-02-03T11:01:13.765Z,84.30
2018-02-03T11:03:41.544Z,83.80
2018-02-03T11:06:09.916Z,83.90
2018-02-03T11:08:38.149Z,84.20
2018-02-03T11:11:06.046Z,84.50
2018-02-03T11:13:33.644Z,84.40
2018-02-03T11:16:01.482Z,84.90
2018-02-03T11:18:29.229Z,85.00
2018-02-03T11:20:57.196Z,85.20
2018-02-03T11:23:25.512Z,85.20
2018-02-03T11:25:53.438Z,85.20
2018-02-03T11:28:21.028Z,85.20
2018-02-03T11:30:48.759Z,85.40
2018-02-03T11:33:16.686Z,85.60
2018-02-03T11:35:44.475Z,85.20
2018-02-03T11:38:12.322Z,85.30
2018-02-03T11:40:40.166Z,85.30
2018-02-03T11:43:08.363Z,85.20
2018-02-03T11:45:37.009Z,85.20
2018-02-03T11:48:04.684Z,84.50
2018-02-03T11:50:32.328Z,85.00
2018-02-03T11:52:59.996Z,84.80
2018-02-03T11:55:27.647Z,84.60
2018-02-03T11:57:55.293Z,84.20
2018-02-03T12:00:22.953Z,85.10
2018-02-03T12:02:50.917Z,85.00
2018-02-03T12:05:18.558Z,84.60
2018-02-03T12:07:46.113Z,83.90
2018-02-03T12:10:13.711Z,84.20
2018-02-03T12:12:41.876Z,84.30
2018-02-03T12:15:11.608Z,84.30
2018-02-03T12:17:44.940Z,84.60
2018-02-03T12:20:15.589Z,83.60
2018-02-03T12:22:44.675Z,83.60
2018-02-03T12:25:16.876Z,84.20
2018-02-03T12:27:44.436Z,83.40
2018-02-03T12:30:12.042Z,83.60
2018-02-03T12:32:39.661Z,83.40
2018-02-03T12:35:07.293Z,83.50
2018-02-03T12:37:34.918Z,83.40
2018-02-03T12:40:02.544Z,82.90
2018-02-03T12:42:30.178Z,83.00
2018-02-03T12:44:57.864Z,82.20
2018-02-03T12:47:25.490Z,82.90
2018-02-03T12:49:53.281Z,81.70
2018-02-03T12:52:20.872Z,80.30
2018-02-03T12:54:48.492Z,81.40
2018-02-03T12:57:21.180Z,80.00
2018-02-03T12:59:48.841Z,79.90
2018-02-03T13:02:16.469Z,79.10
2018-02-03T13:04:44.629Z,78.60
2018-02-03T13:07:12.397Z,78.90
2018-02-03T13:09:40.083Z,79.30
2018-02-03T13:12:08.254Z,78.20
2018-02-03T13:14:35.847Z,79.50
2018-02-03T13:17:03.479Z,78.80
2018-02-03T13:19:31.113Z,79.20
2018-02-03T13:21:58.773Z,78.00
2018-02-03T13:24:26.431Z,77.90
2018-02-03T13:26:54.035Z,78.00
2018-02-03T13:29:21.633Z,75.80
2018-02-03T13:31:49.239Z,76.20
2018-02-03T13:34:16.791Z,76.70
2018-02-03T13:36:44.448Z,77.30
2018-02-03T13:39:12.074Z,77.30
2018-02-03T13:41:39.660Z,76.50
2018-02-03T13:44:07.233Z,77.20
2018-02-03T13:46:34.803Z,77.40
2018-02-03T13:49:02.380Z,77.40
2018-02-03T13:51:30.011Z,76.50
2018-02-03T13:53:57.593Z,75.60
2018-02-03T13:56:25.257Z,76.80
2018-02-03T13:58:53.064Z,78.00
2018-02-03T14:01:20.664Z,77.90
2018-02-03T14:03:48.260Z,78.00
2018-02-03T14:06:15.876Z,78.20
2018-02-03T14:08:43.450Z,77.90
2018-02-03T14:11:11.361Z,77.00
2018-02-03T14:13:38.942Z,76.20
2018-02-03T14:16:06.531Z,76.20
2018-02-03T14:18:34.652Z,77.10
2018-02-03T14:21:02.213Z,77.10
2018-02-03T14:23:29.813Z,78.00
2018-02-03T14:26:18.299Z,78.70
2018-02-03T14:28:45.892Z,79.10
2018-02-03T14:31:13.827Z,79.20
2018-02-03T14:33:41.430Z,78.90
2018-02-03T14:36:08.998Z,79.10
2018-02-03T14:38:36.588Z,79.10
2018-02-03T14:41:04.209Z,79.80
2018-02-03T14:43:32.151Z,79.50
2018-02-03T14:45:59.736Z,79.50
2018-02-03T14:48:27.337Z,79.80
2018-02-03T14:50:54.900Z,79.40
2018-02-03T14:53:22.532Z,79.80
2018-02-03T14:55:50.503Z,80.20
2018-02-03T14:58:18.110Z,80.20
2018-02-03T15:00:45.668Z,80.50
2018-02-03T15:03:13.255Z,80.80
2018-02-03T15:05:40.859Z,80.50
2018-02-03T15:08:08.478Z,80.60
2018-02-03T15:10:36.102Z,80.20
2018-02-03T15:13:03.980Z,80.50
2018-02-03T15:15:32.153Z,80.70
2018-02-03T15:17:59.727Z,80.60
2018-02-03T15:20:27.380Z,81.00
2018-02-03T15:22:54.999Z,80.50
2018-02-03T15:25:22.648Z,80.80
2018-02-03T15:27:50.282Z,80.60
2018-02-03T15:30:17.898Z,80.60
2018-02-03T15:32:45.476Z,81.00
2018-02-03T15:35:13.104Z,80.80
2018-02-03T15:37:40.690Z,80.90
2018-02-03T15:40:08.320Z,80.80
2018-02-03T15:42:35.904Z,80.70
2018-02-03T15:45:03.528Z,80.90
2018-02-03T15:47:31.090Z,81.00
2018-02-03T15:49:58.671Z,81.00
2018-02-03T15:52:26.273Z,80.90
2018-02-03T15:54:54.301Z,81.30
2018-02-03T15:57:21.874Z,81.30
2018-02-03T15:59:49.519Z,81.10
2018-02-03T16:02:17.124Z,81.30
2018-02-03T16:04:44.769Z,81.50
2018-02-03T16:07:12.385Z,81.40
2018-02-03T16:09:39.964Z,81.30
2018-02-03T16:12:07.551Z,81.40
2018-02-03T16:14:35.160Z,82.30
2018-02-03T16:17:02.726Z,81.90
2018-02-03T16:19:30.366Z,82.00
2018-02-03T16:21:57.986Z,81.90
2018-02-03T16:24:25.608Z,81.70
2018-02-03T16:26:53.186Z,81.60
2018-02-03T16:29:20.816Z,81.70
2018-02-03T16:31:48.373Z,82.00
2018-02-03T16:34:16.008Z,82.10
2018-02-03T16:36:43.608Z,82.10
2018-02-03T16:39:11.209Z,82.30
2018-02-03T16:41:38.827Z,82.60
2018-02-03T16:44:06.424Z,82.60
2018-02-03T16:46:34.006Z,82.90
2018-02-03T16:49:02.657Z,83.10
2018-02-03T16:51:30.223Z,83.20
2018-02-03T16:53:57.824Z,83.50
2018-02-03T16:56:37.356Z,83.50
2018-02-03T16:59:04.960Z,83.40
2018-02-03T17:01:32.609Z,83.70
2018-02-03T17:04:00.233Z,83.70
2018-02-03T17:06:28.015Z,83.80
2018-02-03T17:08:55.592Z,83.80
2018-02-03T17:11:23.196Z,83.90
2018-02-03T17:13:50.793Z,83.80
2018-02-03T17:16:18.395Z,83.70
2018-02-03T17:18:46.024Z,83.70
2018-02-03T17:21:13.653Z,83.60
2018-02-03T17:23:41.230Z,83.40
2018-02-03T17:26:08.824Z,83.40
2018-02-03T17:28:36.453Z,83.40
2018-02-03T17:31:04.074Z,83.40
2018-02-03T17:33:31.655Z,83.40
2018-02-03T17:35:59.260Z,83.60
2018-02-03T17:38:32.463Z,83.60
2018-02-03T17:41:00.482Z,83.40
2018-02-03T17:43:28.302Z,83.40
2018-02-03T17:46:01.566Z,83.40
2018-02-03T17:48:29.118Z,83.60
2018-02-03T17:50:58.224Z,83.60
2018-02-03T17:53:25.836Z,83.60
2018-02-03T17:55:59.044Z,83.70
2018-02-03T17:58:26.805Z,83.80
2018-02-03T18:00:54.408Z,83.80
2018-02-03T18:03:22.010Z,83.90
2018-02-03T18:05:49.589Z,83.90
2018-02-03T18:08:17.155Z,83.90
2018-02-03T18:10:44.988Z,83.90
2018-02-03T18:13:12.663Z,83.90
2018-02-03T18:15:40.254Z,84.00
2018-02-03T18:18:07.881Z,84.00
2018-02-03T18:20:35.466Z,84.00
2018-02-03T18:23:03.087Z,84.00
2018-02-03T18:25:30.630Z,84.10
2018-02-03T18:27:58.233Z,84.20
2018-02-03T18:30:25.787Z,84.30
2018-02-03T18:32:53.412Z,84.30
2018-02-03T18:35:21.020Z,84.40
2018-02-03T18:37:48.641Z,84.20
2018-02-03T18:40:16.250Z,84.20
2018-02-03T18:42:43.847Z,84.00
2018-02-03T18:45:23.136Z,83.90
2018-02-03T18:47:50.733Z,83.90
2018-02-03T18:50:18.329Z,83.80
2018-02-03T18:52:45.980Z,83.80
2018-02-03T18:55:13.576Z,83.70
2018-02-03T18:57:41.203Z,83.60
2018-02-03T19:00:08.787Z,83.70
2018-02-03T19:02:36.420Z,83.70
2018-02-03T19:05:04.060Z,83.60
2018-02-03T19:07:31.657Z,83.70
2018-02-03T19:09:59.225Z,83.70
2018-02-03T19:12:26.836Z,83.60
2018-02-03T19:14:54.436Z,83.80
2018-02-03T19:17:22.008Z,83.90
2018-02-03T19:19:49.602Z,83.90
2018-02-03T19:22:17.290Z,83.90
2018-02-03T19:24:44.898Z,83.90
2018-02-03T19:27:12.508Z,84.00
2018-02-03T19:29:40.098Z,83.70
2018-02-03T19:32:07.702Z,83.70
2018-02-03T19:34:35.292Z,83.60
2018-02-03T19:37:02.917Z,83.50
2018-02-03T19:39:30.510Z,83.60
2018-02-03T19:41:58.142Z,83.70
2018-02-03T19:44:25.770Z,83.60
2018-02-03T19:46:53.352Z,83.60
2018-02-03T19:49:20.947Z,83.60
2018-02-03T19:51:48.606Z,83.70
2018-02-03T19:54:16.214Z,83.70
2018-02-03T19:56:43.820Z,83.70
2018-02-03T19:59:11.476Z,83.70
2018-02-03T20:01:39.037Z,83.70
2018-02-03T20:04:06.648Z,83.70
2018-02-03T20:06:34.276Z,83.70
2018-02-03T20:09:01.915Z,83.70
2018-02-03T20:11:29.595Z,83.70
2018-02-03T20:13:57.180Z,83.80
2018-02-03T20:16:24.776Z,83.80
2018-02-03T20:18:52.434Z,83.70
2018-02-03T20:21:20.094Z,83.70
2018-02-03T20:23:47.703Z,83.70
2018-02-03T20:26:15.369Z,83.70
2018-02-03T20:28:43.032Z,83.70
2018-02-03T20:31:10.638Z,83.60
2018-02-03T20:33:38.237Z,83.60
2018-02-03T20:36:05.836Z,83.40
2018-02-03T20:38:33.412Z,83.00
2018-02-03T20:41:01.033Z,82.80
2018-02-03T20:43:28.708Z,82.70
2018-02-03T20:45:56.342Z,82.70
2018-02-03T20:48:24.037Z,82.70
2018-02-03T20:50:51.658Z,82.50
2018-02-03T20:53:19.288Z,82.30
2018-02-03T20:55:46.886Z,82.30
2018-02-03T20:58:14.534Z,82.40
2018-02-03T21:00:42.416Z,82.40
2018-02-03T21:03:10.064Z,82.40
2018-02-03T21:05:38.269Z,82.40
2018-02-03T21:08:06.262Z,82.50
2018-02-03T21:10:33.896Z,82.50
2018-02-03T21:13:01.501Z,82.70
2018-02-03T21:15:29.089Z,82.90
2018-02-03T21:17:56.671Z,83.20
2018-02-03T21:20:24.342Z,83.40
2018-02-03T21:22:51.957Z,83.60
2018-02-03T21:25:19.572Z,83.60
2018-02-03T21:27:47.230Z,83.70
2018-02-03T21:30:14.868Z,83.90
2018-02-03T21:32:42.488Z,84.10
2018-02-03T21:35:10.199Z,84.60
2018-02-03T21:37:38.185Z,84.90
2018-02-03T21:40:05.848Z,84.90
2018-02-03T21:42:33.412Z,85.00
2018-02-03T21:45:01.092Z,85.30
2018-02-03T21:47:28.654Z,85.50
2018-02-03T21:49:56.247Z,85.80
2018-02-03T21:52:23.887Z,85.90
2018-02-03T21:54:51.546Z,86.30
2018-02-03T21:57:19.205Z,86.70
2018-02-03T21:59:46.808Z,86.80
2018-02-03T22:02:14.379Z,87.00
2018-02-03T22:04:42.053Z,87.10
2018-02-03T22:07:09.693Z,87.40
2018-02-03T22:09:37.362Z,88.00
2018-02-03T22:12:05.010Z,87.40
2018-02-03T22:14:32.609Z,87.30
2018-02-03T22:17:00.232Z,87.70
2018-02-03T22:19:28.539Z,87.80
2018-02-03T22:21:56.217Z,87.80
2018-02-03T22:24:23.952Z,88.10
2018-02-03T22:26:51.634Z,88.30
2018-02-03T22:29:19.266Z,88.50
2018-02-03T22:31:48.980Z,88.80
2018-02-03T22:34:17.050Z,89.20
2018-02-03T22:36:45.144Z,89.30
2018-02-03T22:39:13.784Z,89.20
2018-02-03T22:41:41.780Z,89.30
2018-02-03T22:44:09.340Z,89.50
2018-02-03T22:46:37.115Z,89.60
2018-02-03T22:49:04.766Z,89.60
2018-02-03T22:51:32.478Z,89.50
2018-02-03T22:54:00.668Z,89.50
2018-02-03T22:56:28.279Z,89.50
2018-02-03T22:58:55.943Z,89.50
2018-02-03T23:01:23.552Z,89.40
2018-02-03T23:03:51.142Z,89.40
2018-02-03T23:06:18.734Z,89.60
2018-02-03T23:08:46.767Z,89.80
2018-02-03T23:11:14.388Z,89.80
2018-02-03T23:13:41.994Z,89.90
2018-02-03T23:16:09.612Z,90.10
2018-02-03T23:18:37.206Z,90.10
2018-02-03T23:21:04.894Z,90.10
2018-02-03T23:23:32.920Z,90.10
2018-02-03T23:26:00.503Z,90.10
2018-02-03T23:28:28.115Z,90.30
2018-02-03T23:30:55.706Z,90.20
2018-02-03T23:33:23.343Z,90.30
2018-02-03T23:35:50.971Z,90.30
2018-02-03T23:38:18.589Z,90.40
2018-02-03T23:40:46.401Z,90.50
2018-02-03T23:43:14.000Z,90.50
2018-02-03T23:45:41.555Z,90.50
2018-02-03T23:48:09.190Z,90.50
2018-02-03T23:50:36.778Z,90.60
2018-02-03T23:53:04.426Z,90.60
2018-02-03T23:55:32.028Z,90.60
2018-02-03T23:57:59.652Z,90.60
